createdAt,value
2018-11-12T10:58:29.977Z,13.6
2018-11-12T11:17:18.304Z,13.4
2018-11-12T11:28:30.242Z,13.3
2018-11-12T11:43:07.391Z,13.4
2018-11-12T11:55:54.149Z,13.2
2018-11-12T13:12:41.042Z,14.8
2018-11-12T13:22:44.746Z,14.8
2018-11-12T13:32:48.584Z,15
2018-11-12T13:42:52.451Z,15.3
2018-11-12T13:52:56.166Z,15.4
2018-11-12T14:03:00.110Z,15.1
2018-11-12T14:13:03.740Z,15.1
2018-11-12T14:23:07.410Z,15.1
2018-11-12T14:33:11.159Z,15.2
2018-11-12T14:43:14.934Z,15
2018-11-12T14:53:18.703Z,14.8
2018-11-12T15:03:22.391Z,14.5
2018-11-12T15:13:26.047Z,14.4
2018-11-12T15:23:29.708Z,14.2
2018-11-12T15:33:33.319Z,13.9
2018-11-12T15:43:36.859Z,14.1
2018-11-12T15:53:40.551Z,13.7
2018-11-12T16:03:44.322Z,13.4
2018-11-12T16:13:47.940Z,13.2
2018-11-12T16:23:51.637Z,13
2018-11-12T16:33:55.320Z,12.8
2018-11-12T16:43:58.886Z,12.7
2018-11-12T16:54:03.541Z,12.5
2018-11-12T18:26:23.557Z,11.6
2018-11-12T18:36:27.216Z,11.6
2018-11-12T18:46:31.011Z,11.5
2018-11-12T18:56:34.579Z,11.4
2018-11-12T19:06:38.211Z,11.3
2018-11-12T19:16:41.864Z,11.1
2018-11-12T19:26:45.534Z,11
2018-11-12T19:36:49.197Z,10.9
2018-11-12T19:46:52.814Z,10.8
2018-11-12T19:56:56.388Z,10.7
2018-11-12T21:00:09.891Z,10.2
2018-11-12T21:10:13.690Z,10.2
2018-11-12T21:20:17.443Z,10
2018-11-12T21:30:21.012Z,9.6
2018-11-12T21:40:24.709Z,9.7
2018-11-12T21:50:28.311Z,9.8
2018-11-12T22:00:31.987Z,9.7
2018-11-12T22:10:35.663Z,9.7
2018-11-12T22:20:39.269Z,9.6
2018-11-12T22:30:42.956Z,9.5
2018-11-12T22:40:46.568Z,9.6
2018-11-12T22:50:50.173Z,9.5
2018-11-12T23:00:53.810Z,9.4
2018-11-12T23:10:57.426Z,9.2
2018-11-12T23:21:01.159Z,9.2
2018-11-12T23:31:04.890Z,9.1
2018-11-12T23:41:08.486Z,9.1
2018-11-12T23:51:12.062Z,8.9
